Bogalusa, Louisiana
Current Conditions -  °F | °C
As of 9:55 AM on Friday 31 Oct 2014 (Local Time) from KBXA Reporting Station
NA  
Wind Chill: 66°   Ceiling: NA
Heat Index: 66°   Visibility: 10mi
Dew Point: 49°   Wind: 7mph
Humidity: 54%   Direction: 320°NW
Pressure: 30.06"   Gusts: NA
Location:  30.79°N, 89.86°W
Report Text: KBXA 311455Z AUTO 32006KT 10SM 19/09 A3006 RMK AO2 T01870093
Loading
Personal Weather Stations






























Interactive Weather Map
Tropical Storm Tracking
New forecast layout! Learn more

10-Day Weather Forecast

Advertisements
Track Severe Weather on mobile